Danube Voyager — YP2287 — position and weather

sailwx.info

Track history (hours):
 
Tides and Currents Weather Stations Pressure Air Temp Water Temp Dewpoint Dewpoint Depression Visibility Wind Speed Wind Dir Waves Ship Positions

Danube Voyager

Last reported at 2018-Feb-12 15:04 UTC. Time now 2018-Feb-23 03:15 UTC.
Position N 44°16' E 028°06'.
Warning: this ship's position is 10 days out of date.

Length 174 m; draft 0.3 m.

Type: Ship. MMSI: 264162287.

Date/timePositionNaut miles runAvg speedWind from/ knotsBaromVisibWave heightAir tempDewpointWater temp
2018-Feb-12 15:04N 44°16' E 028°06'1 5.9
2018-Feb-12 14:59N 44°16' E 028°07'3 6.7
2018-Feb-12 14:30N 44°16' E 028°11'3 6.9
2018-Feb-12 14:01N 44°15' E 028°16'3 6.8
2018-Feb-12 13:30N 44°15' E 028°20'3 6.6
2018-Feb-12 13:00N 44°12' E 028°23'9 6.3
2018-Feb-12 11:38N 44°06' E 028°31'1 7.4
2018-Feb-12 11:28N 44°06' E 028°33'3 6.5
2018-Feb-12 11:00N 44°06' E 028°37'0 0.4
2018-Feb-12 10:30N 44°06' E 028°38'2 3.7
2018-Feb-12 10:01N 44°08' E 028°39'0 0.0
2018-Feb-12 09:30N 44°08' E 028°39'0 0.0
2018-Feb-12 09:01N 44°08' E 028°39'0 0.0
2018-Feb-12 08:31N 44°08' E 028°39'0 0.0
2018-Feb-12 08:01N 44°08' E 028°39'1 1.5
2018-Feb-12 07:30N 44°07' E 028°39'1 1.3
2018-Feb-12 07:00N 44°06' E 028°39'0 0.0
2018-Feb-12 06:31N 44°06' E 028°39'0 0.0
2018-Feb-12 06:00N 44°06' E 028°39'0 0.9
2018-Feb-12 05:30N 44°06' E 028°39'0 0.0
2018-Feb-12 05:01N 44°06' E 028°39'0 0.0
2018-Feb-12 04:30N 44°06' E 028°39'0 0.0
2018-Feb-12 04:00N 44°06' E 028°39'0 0.0
2018-Feb-12 03:31N 44°06' E 028°39'0 0.0
2018-Feb-12 03:01N 44°06' E 028°39'0 0.0
2018-Feb-12 02:30N 44°06' E 028°39'0 0.0
2018-Feb-12 02:00N 44°06' E 028°39'0 0.0
2018-Feb-12 01:31N 44°06' E 028°39'0 0.0
2018-Feb-12 01:01N 44°06' E 028°39'0 0.0
2018-Feb-12 00:30N 44°06' E 028°39'0 0.0
2018-Feb-12 00:00N 44°06' E 028°39'0 0.0
2018-Feb-11 23:29N 44°06' E 028°39'0 0.0
2018-Feb-11 23:00N 44°06' E 028°39'0 0.0
2018-Feb-11 22:30N 44°06' E 028°39'0 0.0
2018-Feb-11 22:00N 44°06' E 028°39'0 0.0
2018-Feb-11 21:30N 44°06' E 028°39'0 0.0
2018-Feb-11 21:01N 44°06' E 028°39'0 0.0
2018-Feb-11 20:30N 44°06' E 028°39'0 0.0
2018-Feb-11 20:01N 44°06' E 028°39'0 0.0
2018-Feb-11 19:31N 44°06' E 028°39'0 0.0
2018-Feb-11 19:01N 44°06' E 028°39'0 0.0
2018-Feb-11 18:31N 44°06' E 028°39'0 0.0
2018-Feb-11 18:00N 44°06' E 028°39'0 0.0
2018-Feb-11 17:31N 44°06' E 028°39'0 0.0
2018-Feb-11 17:01N 44°06' E 028°39'0 0.0
2018-Feb-11 16:31N 44°06' E 028°39'0 0.0
2018-Feb-11 16:01N 44°06' E 028°39'0 0.0
2018-Feb-11 15:31N 44°06' E 028°39'0 0.0
2018-Feb-11 15:00N 44°06' E 028°39'0 0.0
2018-Feb-11 14:29N 44°06' E 028°39'0 0.0
2018-Feb-11 14:01N 44°06' E 028°39'0 0.0
2018-Feb-11 13:31N 44°06' E 028°39'0 0.0
2018-Feb-11 13:01N 44°06' E 028°39'0 0.0
2018-Feb-11 12:31N 44°06' E 028°39'0 0.0
2018-Feb-11 12:00N 44°06' E 028°39'0 0.0
2018-Feb-11 11:30N 44°06' E 028°39'0 0.0
2018-Feb-11 11:00N 44°06' E 028°39'0 0.0
2018-Feb-11 10:30N 44°06' E 028°39'0 0.0
2018-Feb-11 10:00N 44°06' E 028°39'0 0.0
2018-Feb-11 09:30N 44°06' E 028°39'0 0.0
2018-Feb-11 09:01N 44°06' E 028°39'0 0.0
2018-Feb-11 08:30N 44°06' E 028°39'0 0.0
2018-Feb-11 08:00N 44°06' E 028°39'0 0.0
2018-Feb-11 07:31N 44°06' E 028°39'0 0.0
2018-Feb-11 07:00N 44°06' E 028°39'0 0.0
2018-Feb-11 06:30N 44°06' E 028°39'0 0.0
2018-Feb-11 06:00N 44°06' E 028°39'0 0.0
2018-Feb-11 05:31N 44°06' E 028°39'0 0.0
2018-Feb-11 05:00N 44°06' E 028°39'0 0.0
2018-Feb-11 04:31N 44°06' E 028°39'0 0.0
2018-Feb-11 04:00N 44°06' E 028°39'0 0.0
2018-Feb-11 03:29N 44°06' E 028°39'0 0.0
2018-Feb-11 03:00N 44°06' E 028°39'0 0.0
2018-Feb-11 02:30N 44°06' E 028°39'0 0.0
2018-Feb-11 02:01N 44°06' E 028°39'0 0.0
2018-Feb-11 01:30N 44°06' E 028°39'0 0.0
2018-Feb-11 01:00N 44°06' E 028°39'0 0.0
2018-Feb-11 00:30N 44°06' E 028°39'0 0.0
2018-Feb-11 00:01N 44°06' E 028°39'0 0.0
2018-Feb-10 23:31N 44°06' E 028°39'0 0.0
2018-Feb-10 23:00N 44°06' E 028°39'0 0.0
2018-Feb-10 22:31N 44°06' E 028°39'0 0.0
2018-Feb-10 22:00N 44°06' E 028°39'0 0.0
2018-Feb-10 21:30N 44°06' E 028°39'0 0.0
2018-Feb-10 21:00N 44°06' E 028°39'0 0.0
2018-Feb-10 20:31N 44°06' E 028°39'0 0.0
2018-Feb-10 20:01N 44°06' E 028°39'0 0.0
2018-Feb-10 19:30N 44°06' E 028°39'0 0.0
2018-Feb-10 19:01N 44°06' E 028°39'0 0.0
2018-Feb-10 18:31N 44°06' E 028°39'0 0.0
2018-Feb-10 18:01N 44°06' E 028°39'0 0.0
2018-Feb-10 17:31N 44°06' E 028°39'0 0.0
2018-Feb-10 17:00N 44°06' E 028°39'0 0.0
2018-Feb-10 16:31N 44°06' E 028°39'1 1.8
2018-Feb-10 16:01N 44°07' E 028°39'0 0.0
2018-Feb-10 15:31N 44°07' E 028°39'1 1.5
2018-Feb-10 15:00N 44°07' E 028°39'0 0.1
2018-Feb-10 14:31N 44°07' E 028°39'2 3.3
2018-Feb-10 14:01N 44°06' E 028°38'0 0.8
2018-Feb-10 13:30N 44°06' E 028°37'1 1.2
2018-Feb-10 13:00N 44°06' E 028°36'0 0.0
2018-Feb-10 12:30N 44°06' E 028°36'0 0.0
2018-Feb-10 12:01N 44°06' E 028°36'0 0.0
2018-Feb-10 11:31N 44°06' E 028°36'1 2.5
2018-Feb-10 11:00N 44°06' E 028°35'7 4.6
2018-Feb-10 09:27N 44°09' E 028°26'2 5.5
2018-Feb-10 09:00N 44°11' E 028°24'3 5.4
2018-Feb-10 08:30N 44°14' E 028°22'3 5.2
2018-Feb-10 08:00N 44°15' E 028°19'3 5.6
2018-Feb-10 07:30N 44°15' E 028°15'3 5.4
2018-Feb-10 07:00N 44°16' E 028°11'3 5.4
2018-Feb-10 06:31N 44°16' E 028°08'  
Track history (hours):
 
Tides and Currents Weather Stations Pressure Air Temp Water Temp Dewpoint Dewpoint Depression Visibility Wind Speed Wind Dir Waves Ship Positions

Danube Voyager

Last reported at 2018-Feb-12 15:04 UTC. Time now 2018-Feb-23 03:15 UTC.
Position N 44°16' E 028°06'.
Warning: this ship's position is 10 days out of date.

Length 174 m; draft 0.3 m.

Type: Ship. MMSI: 264162287.

Date/timePositionNaut miles runAvg speedWind from/ knotsBaromVisibWave heightAir tempDewpointWater temp
2018-Feb-12 15:04N 44°16' E 028°06'1 5.9
2018-Feb-12 14:59N 44°16' E 028°07'3 6.7
2018-Feb-12 14:30N 44°16' E 028°11'3 6.9
2018-Feb-12 14:01N 44°15' E 028°16'3 6.8
2018-Feb-12 13:30N 44°15' E 028°20'3 6.6
2018-Feb-12 13:00N 44°12' E 028°23'9 6.3
2018-Feb-12 11:38N 44°06' E 028°31'1 7.4
2018-Feb-12 11:28N 44°06' E 028°33'3 6.5
2018-Feb-12 11:00N 44°06' E 028°37'0 0.4
2018-Feb-12 10:30N 44°06' E 028°38'2 3.7
2018-Feb-12 10:01N 44°08' E 028°39'0 0.0
2018-Feb-12 09:30N 44°08' E 028°39'0 0.0
2018-Feb-12 09:01N 44°08' E 028°39'0 0.0
2018-Feb-12 08:31N 44°08' E 028°39'0 0.0
2018-Feb-12 08:01N 44°08' E 028°39'1 1.5
2018-Feb-12 07:30N 44°07' E 028°39'1 1.3
2018-Feb-12 07:00N 44°06' E 028°39'0 0.0
2018-Feb-12 06:31N 44°06' E 028°39'0 0.0
2018-Feb-12 06:00N 44°06' E 028°39'0 0.9
2018-Feb-12 05:30N 44°06' E 028°39'0 0.0
2018-Feb-12 05:01N 44°06' E 028°39'0 0.0
2018-Feb-12 04:30N 44°06' E 028°39'0 0.0
2018-Feb-12 04:00N 44°06' E 028°39'0 0.0
2018-Feb-12 03:31N 44°06' E 028°39'0 0.0
2018-Feb-12 03:01N 44°06' E 028°39'0 0.0
2018-Feb-12 02:30N 44°06' E 028°39'0 0.0
2018-Feb-12 02:00N 44°06' E 028°39'0 0.0
2018-Feb-12 01:31N 44°06' E 028°39'0 0.0
2018-Feb-12 01:01N 44°06' E 028°39'0 0.0
2018-Feb-12 00:30N 44°06' E 028°39'0 0.0
2018-Feb-12 00:00N 44°06' E 028°39'0 0.0
2018-Feb-11 23:29N 44°06' E 028°39'0 0.0
2018-Feb-11 23:00N 44°06' E 028°39'0 0.0
2018-Feb-11 22:30N 44°06' E 028°39'0 0.0
2018-Feb-11 22:00N 44°06' E 028°39'0 0.0
2018-Feb-11 21:30N 44°06' E 028°39'0 0.0
2018-Feb-11 21:01N 44°06' E 028°39'0 0.0
2018-Feb-11 20:30N 44°06' E 028°39'0 0.0
2018-Feb-11 20:01N 44°06' E 028°39'0 0.0
2018-Feb-11 19:31N 44°06' E 028°39'0 0.0
2018-Feb-11 19:01N 44°06' E 028°39'0 0.0
2018-Feb-11 18:31N 44°06' E 028°39'0 0.0
2018-Feb-11 18:00N 44°06' E 028°39'0 0.0
2018-Feb-11 17:31N 44°06' E 028°39'0 0.0
2018-Feb-11 17:01N 44°06' E 028°39'0 0.0
2018-Feb-11 16:31N 44°06' E 028°39'0 0.0
2018-Feb-11 16:01N 44°06' E 028°39'0 0.0
2018-Feb-11 15:31N 44°06' E 028°39'0 0.0
2018-Feb-11 15:00N 44°06' E 028°39'0 0.0
2018-Feb-11 14:29N 44°06' E 028°39'0 0.0
2018-Feb-11 14:01N 44°06' E 028°39'0 0.0
2018-Feb-11 13:31N 44°06' E 028°39'0 0.0
2018-Feb-11 13:01N 44°06' E 028°39'0 0.0
2018-Feb-11 12:31N 44°06' E 028°39'0 0.0
2018-Feb-11 12:00N 44°06' E 028°39'0 0.0
2018-Feb-11 11:30N 44°06' E 028°39'0 0.0
2018-Feb-11 11:00N 44°06' E 028°39'0 0.0
2018-Feb-11 10:30N 44°06' E 028°39'0 0.0
2018-Feb-11 10:00N 44°06' E 028°39'0 0.0
2018-Feb-11 09:30N 44°06' E 028°39'0 0.0
2018-Feb-11 09:01N 44°06' E 028°39'0 0.0
2018-Feb-11 08:30N 44°06' E 028°39'0 0.0
2018-Feb-11 08:00N 44°06' E 028°39'0 0.0
2018-Feb-11 07:31N 44°06' E 028°39'0 0.0
2018-Feb-11 07:00N 44°06' E 028°39'0 0.0
2018-Feb-11 06:30N 44°06' E 028°39'0 0.0
2018-Feb-11 06:00N 44°06' E 028°39'0 0.0
2018-Feb-11 05:31N 44°06' E 028°39'0 0.0
2018-Feb-11 05:00N 44°06' E 028°39'0 0.0
2018-Feb-11 04:31N 44°06' E 028°39'0 0.0
2018-Feb-11 04:00N 44°06' E 028°39'0 0.0
2018-Feb-11 03:29N 44°06' E 028°39'0 0.0
2018-Feb-11 03:00N 44°06' E 028°39'0 0.0
2018-Feb-11 02:30N 44°06' E 028°39'0 0.0
2018-Feb-11 02:01N 44°06' E 028°39'0 0.0
2018-Feb-11 01:30N 44°06' E 028°39'0 0.0
2018-Feb-11 01:00N 44°06' E 028°39'0 0.0
2018-Feb-11 00:30N 44°06' E 028°39'0 0.0
2018-Feb-11 00:01N 44°06' E 028°39'0 0.0
2018-Feb-10 23:31N 44°06' E 028°39'0 0.0
2018-Feb-10 23:00N 44°06' E 028°39'0 0.0
2018-Feb-10 22:31N 44°06' E 028°39'0 0.0
2018-Feb-10 22:00N 44°06' E 028°39'0 0.0
2018-Feb-10 21:30N 44°06' E 028°39'0 0.0
2018-Feb-10 21:00N 44°06' E 028°39'0 0.0
2018-Feb-10 20:31N 44°06' E 028°39'0 0.0
2018-Feb-10 20:01N 44°06' E 028°39'0 0.0
2018-Feb-10 19:30N 44°06' E 028°39'0 0.0
2018-Feb-10 19:01N 44°06' E 028°39'0 0.0
2018-Feb-10 18:31N 44°06' E 028°39'0 0.0
2018-Feb-10 18:01N 44°06' E 028°39'0 0.0
2018-Feb-10 17:31N 44°06' E 028°39'0 0.0
2018-Feb-10 17:00N 44°06' E 028°39'0 0.0
2018-Feb-10 16:31N 44°06' E 028°39'1 1.8
2018-Feb-10 16:01N 44°07' E 028°39'0 0.0
2018-Feb-10 15:31N 44°07' E 028°39'1 1.5
2018-Feb-10 15:00N 44°07' E 028°39'0 0.1
2018-Feb-10 14:31N 44°07' E 028°39'2 3.3
2018-Feb-10 14:01N 44°06' E 028°38'0 0.8
2018-Feb-10 13:30N 44°06' E 028°37'1 1.2
2018-Feb-10 13:00N 44°06' E 028°36'0 0.0
2018-Feb-10 12:30N 44°06' E 028°36'0 0.0
2018-Feb-10 12:01N 44°06' E 028°36'0 0.0
2018-Feb-10 11:31N 44°06' E 028°36'1 2.5
2018-Feb-10 11:00N 44°06' E 028°35'7 4.6
2018-Feb-10 09:27N 44°09' E 028°26'2 5.5
2018-Feb-10 09:00N 44°11' E 028°24'3 5.4
2018-Feb-10 08:30N 44°14' E 028°22'3 5.2
2018-Feb-10 08:00N 44°15' E 028°19'3 5.6
2018-Feb-10 07:30N 44°15' E 028°15'3 5.4
2018-Feb-10 07:00N 44°16' E 028°11'3 5.4
2018-Feb-10 06:31N 44°16' E 028°08'  

Dump ship's entire track history